METAR AND TAF INFORMATION
METAR FOR KMIA
ADDS - METARS form results

(2044 UTC 21 May 2018)
Data provider http://aviationweather.gov/adds/metars/
 
METAR text: KMIA 211953Z 11011KT 10SM FEW024 BKN110 OVC150 27/22 A3003 RMK AO2 SLP168 T02670217 $
Conditions at: KMIA (MIAMI , FL, US) observed 1953 UTC 21 May 2018
Temperature: 26.7°C (80°F)
Dewpoint: 21.7°C (71°F) [RH = 74%]
Pressure (altimeter): 30.03 inches Hg (1017.0 mb)
[Sea-level pressure: 1016.8 mb]
Winds: from the ESE (110 degrees) at 13 MPH (11 knots; 5.7 m/s)
Visibility: 10 or more miles (16+ km)
Ceiling: 11000 feet AGL
Clouds: few clouds at 2400 feet AGL
broken clouds at 11000 feet AGL
overcast cloud deck at 15000 feet AGL
Weather:
SOME DATA ABOVE MAY BE INACCURATE!!!
"$" is an indication the sensor requires maintenance

Forecast for: KMIA (MIAMI , FL, US)
Text: KMIA 211727Z 2118/2224 12015G22KT P6SM SCT026 BKN040 BKN120
Forecast period: 1800 to 2000 UTC 21 May 2018
Forecast type: FROM: standard forecast or significant change
Winds: from the ESE (120 degrees) at 17 MPH (15 knots; 7.8 m/s)
gusting to 25 MPH (22 knots; 11.4 m/s)
Visibility: 6 or more miles (10+ km)
Ceiling: 4000 feet AGL
Clouds: scattered clouds at 2600 feet AGL
broken clouds at 4000 feet AGL
broken clouds at 12000 feet AGL
Weather: no significant weather forecast for this period
Forecast for: KMIA (MIAMI , FL, US)
Text: KMIA 211727Z 2118/2224 12015G22KT P6SM SCT026 BKN040 BKN120
Forecast period: 1800 to 2000 UTC 21 May 2018
Forecast type: FROM: standard forecast or significant change
Winds: from the ESE (120 degrees) at 17 MPH (15 knots; 7.8 m/s)
gusting to 25 MPH (22 knots; 11.4 m/s)
Visibility: 6 or more miles (10+ km)
Ceiling: 4000 feet AGL
Clouds: scattered clouds at 2600 feet AGL
broken clouds at 4000 feet AGL
broken clouds at 12000 feet AGL
Weather: no significant weather forecast for this period
Forecast for: KMIA (MIAMI , FL, US)
Text: KMIA 211727Z 2118/2224 12015G22KT P6SM SCT026 BKN040 BKN120
Forecast period: 2000 UTC 21 May 2018 to 0200 UTC 22 May 2018
Forecast type: FROM: standard forecast or significant change
Winds: from the ESE (110 degrees) at 17 MPH (15 knots; 7.8 m/s)
Visibility: 6 or more miles (10+ km)
Ceiling: 5000 feet AGL
Clouds: scattered clouds at 2000 feet AGL
broken clouds at 5000 feet AGL
Weather: no significant weather forecast for this period
Forecast for: KMIA (MIAMI , FL, US)
Text: KMIA 211727Z 2118/2224 12015G22KT P6SM SCT026 BKN040 BKN120
Forecast period: 2000 UTC 21 May 2018 to 0200 UTC 22 May 2018
Forecast type: FROM: standard forecast or significant change
Winds: from the ESE (110 degrees) at 17 MPH (15 knots; 7.8 m/s)
Visibility: 6 or more miles (10+ km)
Ceiling: 5000 feet AGL
Clouds: scattered clouds at 2000 feet AGL
broken clouds at 5000 feet AGL
Weather: no significant weather forecast for this period
Forecast for: KMIA (MIAMI , FL, US)
Text: KMIA 211727Z 2118/2224 12015G22KT P6SM SCT026 BKN040 BKN120
Forecast period: 0200 to 1200 UTC 22 May 2018
Forecast type: FROM: standard forecast or significant change
Winds: from the ESE (120 degrees) at 9 MPH (8 knots; 4.2 m/s)
Visibility: 6 or more miles (10+ km)
Ceiling: 8000 feet AGL
Clouds: scattered clouds at 2000 feet AGL
broken clouds at 8000 feet AGL
Weather: no significant weather forecast for this period
Forecast for: KMIA (MIAMI , FL, US)
Text: KMIA 211727Z 2118/2224 12015G22KT P6SM SCT026 BKN040 BKN120
Forecast period: 0200 to 1200 UTC 22 May 2018
Forecast type: FROM: standard forecast or significant change
Winds: from the ESE (120 degrees) at 9 MPH (8 knots; 4.2 m/s)
Visibility: 6 or more miles (10+ km)
Ceiling: 8000 feet AGL
Clouds: scattered clouds at 2000 feet AGL
broken clouds at 8000 feet AGL
Weather: no significant weather forecast for this period
Forecast for: KMIA (MIAMI , FL, US)
Text: KMIA 211727Z 2118/2224 12015G22KT P6SM SCT026 BKN040 BKN120
Forecast period: 1200 UTC 22 May 2018 to 0000 UTC 23 May 2018
Forecast type: FROM: standard forecast or significant change
Winds: from the ESE (120 degrees) at 14 MPH (12 knots; 6.2 m/s)
Visibility: 6 or more miles (10+ km)
Ceiling: 5000 feet AGL
Clouds: broken clouds at 5000 feet AGL
Weather: VCSH  (showers in vicinity)
Forecast for: KMIA (MIAMI , FL, US)
Text: KMIA 211727Z 2118/2224 12015G22KT P6SM SCT026 BKN040 BKN120
Forecast period: 1200 UTC 22 May 2018 to 0000 UTC 23 May 2018
Forecast type: FROM: standard forecast or significant change
Winds: from the ESE (120 degrees) at 14 MPH (12 knots; 6.2 m/s)
Visibility: 6 or more miles (10+ km)
Ceiling: 5000 feet AGL
Clouds: broken clouds at 5000 feet AGL
Weather: VCSH  (showers in vicinity)

 AIRPORT MAP

 RUNWAY INFORMATION
Runway 08L Runway length 8600 ft Runway width 150 ft
Runway elevation 8 ft Runway displaced threshold 0 ft Runway heading 87
Runway 26R Runway length 8600 ft Runway width 150 ft
Runway elevation 8 ft Runway displaced threshold 0 ft Runway heading 267
Runway 08R Runway length 10506 ft Runway width 200 ft
Runway elevation 8 ft Runway displaced threshold 0 ft Runway heading 87
Runway 26L Runway length 10506 ft Runway width 200 ft
Runway elevation 8 ft Runway displaced threshold 0 ft Runway heading 267
Runway 09 Runway length 13000 ft Runway width 150 ft
Runway elevation 7 ft Runway displaced threshold 1350 ft Runway heading 87
Runway 27 Runway length 13000 ft Runway width 150 ft
Runway elevation 8 ft Runway displaced threshold 1270 ft Runway heading 267
Runway 12 Runway length 9354 ft Runway width 150 ft
Runway elevation 8 ft Runway displaced threshold 0 ft Runway heading 119
Runway 30 Runway length 9354 ft Runway width 150 ft
Runway elevation 8 ft Runway displaced threshold 939 ft Runway heading 299

 AIRPORT FREQUENCIES
Type APP Name APP Frequency 120.5 MHZ
Type ATIS Name ATIS Frequency 119.15 MHZ
Type CLD Name CLNC DEL Frequency 120.35 MHZ
Type DEP Name DEP Frequency 119.45 MHZ
Type GND Name GND Frequency 121.8 MHZ
Type TWR Name TWR Frequency 118.3 MHZ
Type UNIC Name UNICOM Frequency 123 MHZ

 AIRPORT NEAR NAVIGATION AIDS
Type VORTAC Name Dolphin Frequency 113900 KHZ
Type NDB Name Keyes Frequency 248 KHZ



Powered by Virtual Airlines Manager [v2.6.2]